Maple Falls, WA (98266)

9:51 AM PDT on April 30, 2017 (GMT -0700)
Div 7-8, Paradise Lakes | | Change Station

Elev 528 ft 48.95 °N, 122.14 °W | Updated 58 seconds ago

Mostly Cloudy
Mostly Cloudy
52.7 °F
Feels Like 52.7 °F
N
1.1
Wind Variable Wind from ESE

Today
High -- | Low -- °F
--% Chance of Precip.
Yesterday
High -- | Low -- °F
Precip. -- in
Pressure 30.22 in
Visibility 10.0 miles
Clouds Mostly Cloudy 6000 ft
Dew Point 42 °F
Humidity 66%
Rainfall 0.00 in
Snow Depth Not available.
5:48 AM 8:23 PM
Waxing Crescent, 24% visible
METAR KBLI 301553Z VRB05KT 10SM BKN060 11/03 A3020 RMK AO2 SLP233 T01060033
Pressure 30.22 in
Visibility 10.0 miles
Clouds Mostly Cloudy 6000 ft
Dew Point 42 °F
Humidity 66%
Rainfall 0.00 in
Snow Depth Not available.
5:48 AM 8:23 PM
Waxing Crescent, 24% visible
METAR KBLI 301553Z VRB05KT 10SM BKN060 11/03 A3020 RMK AO2 SLP233 T01060033

Get Severe Weather Alerts

Thanks for signing up!

Be on the lookout for a verification email in your inbox.

You'll start receiving the daily forecast at 8 AM.

×

10-Day Weather Forecast

Almanac

Astronomy

Apr. 30, 2017 Rise Set
Actual Time
Civil Twilight
Nautical Twilight
Astronomical Twilight
Moon
Length of Visible Light
Length of Day
Tomorrow will be .
, % of the Moon is Illuminated

Today's Extremes

State Highs State Lows

Community

WunderPhotos

WunderBlog® & News

Nearby

Air Quality

  Air Quality AQ Index Pollutant
Not available.

Snow Depth

Station Depth Elevation

Earthquake Activity

City Distance Mag. Time & Date
Minimum magnitude displayed is 2.5.

Coastal Water Temperatures

Place Temperature

Stations

Nearby Weather Stations

Station Location Temp. Windchill Dew Point Humidity Wind Precip. Elev Updated Type
                   

Watches & Warnings

There are currently no watches in effect.